createdAt,value
2023-03-10T00:01:37.998Z,7.80
2023-03-10T00:04:04.762Z,7.80
2023-03-10T00:06:35.508Z,7.70
2023-03-10T00:09:03.087Z,7.60
2023-03-10T00:11:29.723Z,7.50
2023-03-10T00:13:56.730Z,7.50
2023-03-10T00:16:28.736Z,7.50
2023-03-10T00:18:56.289Z,7.50
2023-03-10T00:21:28.546Z,7.50
2023-03-10T00:23:55.488Z,7.50
2023-03-10T00:26:23.575Z,7.50
2023-03-10T00:28:50.796Z,7.50
2023-03-10T00:31:23.328Z,7.50
2023-03-10T00:33:52.065Z,7.50
2023-03-10T00:36:26.427Z,7.50
2023-03-10T00:38:54.889Z,7.50
2023-03-10T00:41:26.755Z,7.50
2023-03-10T00:43:53.983Z,7.50
2023-03-10T00:46:20.836Z,7.50
2023-03-10T00:48:47.654Z,7.50
2023-03-10T00:51:14.583Z,7.50
2023-03-10T00:53:42.062Z,7.60
2023-03-10T00:56:15.885Z,7.60
2023-03-10T00:58:44.351Z,7.60
2023-03-10T01:01:19.060Z,7.60
2023-03-10T01:03:46.663Z,7.60
2023-03-10T01:06:13.971Z,7.60
2023-03-10T01:08:40.713Z,7.70
2023-03-10T01:11:07.424Z,7.70
2023-03-10T01:13:34.619Z,7.80
2023-03-10T01:16:01.437Z,7.70
2023-03-10T01:18:28.131Z,7.80
2023-03-10T01:20:54.706Z,7.90
2023-03-10T01:23:24.641Z,7.90
2023-03-10T01:25:51.899Z,7.90
2023-03-10T01:28:19.487Z,7.90
2023-03-10T01:30:46.765Z,8.00
2023-03-10T01:33:13.795Z,8.00
2023-03-10T01:35:41.137Z,8.10
2023-03-10T01:38:08.835Z,8.00
2023-03-10T01:40:37.686Z,8.10
2023-03-10T01:43:22.482Z,8.10
2023-03-10T01:45:52.191Z,8.10
2023-03-10T01:48:22.026Z,8.10
2023-03-10T01:50:52.901Z,8.10
2023-03-10T01:53:20.910Z,8.10
2023-03-10T01:55:52.418Z,8.10
2023-03-10T01:58:22.625Z,8.10
2023-03-10T02:00:52.757Z,8.10
2023-03-10T02:03:40.117Z,8.10
2023-03-10T02:06:10.991Z,8.10
2023-03-10T02:08:44.287Z,8.10
2023-03-10T02:11:13.041Z,8.10
2023-03-10T02:13:39.687Z,8.10
2023-03-10T02:16:06.976Z,8.10
2023-03-10T02:18:34.015Z,8.10
2023-03-10T02:21:12.740Z,8.10
2023-03-10T02:23:42.984Z,8.10
2023-03-10T02:26:16.396Z,8.00
2023-03-10T02:28:43.857Z,8.00
2023-03-10T02:31:12.217Z,7.90
2023-03-10T02:33:39.441Z,7.90
2023-03-10T02:36:21.246Z,7.80
2023-03-10T02:38:48.491Z,7.80
2023-03-10T02:41:45.891Z,7.80
2023-03-10T02:44:16.701Z,7.70
2023-03-10T02:46:43.595Z,7.70
2023-03-10T02:49:10.818Z,7.60
2023-03-10T02:51:43.432Z,7.60
2023-03-10T02:54:10.917Z,7.60
2023-03-10T02:56:38.330Z,7.60
2023-03-10T02:59:06.902Z,7.60
2023-03-10T03:01:33.907Z,7.60
2023-03-10T03:04:01.288Z,7.70
2023-03-10T03:06:29.130Z,7.80
2023-03-10T03:08:56.277Z,7.80
2023-03-10T03:11:22.974Z,7.80
2023-03-10T03:13:49.706Z,7.80
2023-03-10T03:16:16.498Z,7.80
2023-03-10T03:18:43.320Z,7.70
2023-03-10T03:21:13.111Z,7.70
2023-03-10T03:23:40.081Z,7.70
2023-03-10T03:26:18.701Z,7.70
2023-03-10T03:28:45.615Z,7.60
2023-03-10T03:31:17.267Z,7.50
2023-03-10T03:33:44.175Z,7.50
2023-03-10T03:36:10.831Z,7.40
2023-03-10T03:38:37.622Z,7.40
2023-03-10T03:41:05.139Z,7.40
2023-03-10T03:43:32.185Z,7.40
2023-03-10T03:45:59.174Z,7.40
2023-03-10T03:48:26.225Z,7.40
2023-03-10T03:50:52.852Z,7.40
2023-03-10T03:53:19.736Z,7.30
2023-03-10T03:55:46.452Z,7.30
2023-03-10T03:58:13.118Z,7.30
2023-03-10T04:00:40.731Z,7.30
2023-03-10T04:03:07.587Z,7.30
2023-03-10T04:05:34.874Z,7.20
2023-03-10T04:08:01.792Z,7.20
2023-03-10T04:10:29.173Z,7.20
2023-03-10T04:12:56.065Z,7.30
2023-03-10T04:15:22.767Z,7.20
2023-03-10T04:17:49.624Z,7.20
2023-03-10T04:20:16.538Z,7.20
2023-03-10T04:22:43.209Z,7.20
2023-03-10T04:25:10.367Z,7.10
2023-03-10T04:27:37.036Z,7.30
2023-03-10T04:30:04.964Z,7.30
2023-03-10T04:32:32.367Z,7.40
2023-03-10T04:34:59.191Z,7.50
2023-03-10T04:37:27.262Z,7.60
2023-03-10T04:39:54.112Z,7.70
2023-03-10T04:42:21.207Z,7.80
2023-03-10T04:44:47.913Z,7.80
2023-03-10T04:47:15.025Z,7.70
2023-03-10T04:49:41.875Z,7.60
2023-03-10T04:52:08.528Z,7.50
2023-03-10T04:54:35.286Z,7.40
2023-03-10T04:57:01.942Z,7.30
2023-03-10T04:59:28.623Z,7.10
2023-03-10T05:01:55.423Z,6.90
2023-03-10T05:04:22.241Z,6.60
2023-03-10T05:06:52.699Z,6.50
2023-03-10T05:09:19.734Z,6.40
2023-03-10T05:11:46.512Z,6.30
2023-03-10T05:14:13.846Z,6.20
2023-03-10T05:16:40.546Z,6.10
2023-03-10T05:19:07.347Z,6.10
2023-03-10T05:21:34.298Z,6.10
2023-03-10T05:24:02.081Z,6.00
2023-03-10T05:26:29.091Z,6.00
2023-03-10T05:28:56.313Z,6.10
2023-03-10T05:31:26.194Z,6.10
2023-03-10T05:33:54.246Z,6.10
2023-03-10T05:36:21.269Z,6.10
2023-03-10T05:38:48.190Z,6.10
2023-03-10T05:41:14.948Z,6.10
2023-03-10T05:43:41.872Z,6.20
2023-03-10T05:46:08.884Z,6.30
2023-03-10T05:48:35.715Z,6.30
2023-03-10T05:51:05.820Z,6.40
2023-03-10T05:53:33.806Z,6.50
2023-03-10T05:56:04.264Z,6.60
2023-03-10T05:58:30.971Z,6.80
2023-03-10T06:00:57.644Z,6.90
2023-03-10T06:03:24.954Z,7.00
2023-03-10T06:05:51.702Z,7.10
2023-03-10T06:08:18.408Z,7.10
2023-03-10T06:10:45.103Z,7.10
2023-03-10T06:13:11.764Z,7.10
2023-03-10T06:15:38.450Z,7.10
2023-03-10T06:18:05.280Z,7.10
2023-03-10T06:20:32.490Z,7.20
2023-03-10T06:22:59.129Z,7.10
2023-03-10T06:25:25.784Z,7.10
2023-03-10T06:27:52.582Z,7.10
2023-03-10T06:30:20.802Z,7.00
2023-03-10T06:32:47.679Z,6.90
2023-03-10T06:35:15.184Z,6.90
2023-03-10T06:37:41.938Z,6.90
2023-03-10T06:40:12.878Z,6.90
2023-03-10T06:42:43.599Z,7.00
2023-03-10T06:45:14.681Z,7.10
2023-03-10T06:47:41.308Z,7.20
2023-03-10T06:50:08.620Z,7.30
2023-03-10T06:52:35.540Z,7.20
2023-03-10T06:55:02.855Z,7.10
2023-03-10T06:57:29.572Z,7.10
2023-03-10T06:59:56.213Z,7.00
2023-03-10T07:02:23.013Z,7.00
2023-03-10T07:04:49.779Z,6.90
2023-03-10T07:07:16.563Z,6.90
2023-03-10T07:09:43.270Z,6.90
2023-03-10T07:12:10.060Z,6.80
2023-03-10T07:14:36.713Z,6.90
2023-03-10T07:17:04.095Z,7.00
2023-03-10T07:19:31.008Z,7.10
2023-03-10T07:21:57.664Z,7.30
2023-03-10T07:24:24.346Z,7.50
2023-03-10T07:26:51.232Z,7.70
2023-03-10T07:29:17.897Z,7.90
2023-03-10T07:31:45.198Z,8.10
2023-03-10T07:34:12.033Z,8.30
2023-03-10T07:36:38.654Z,8.50
2023-03-10T07:39:05.267Z,8.50
2023-03-10T07:41:31.955Z,8.50
2023-03-10T07:43:58.586Z,8.40
2023-03-10T07:46:25.619Z,8.30
2023-03-10T07:48:53.019Z,8.30
2023-03-10T07:51:20.420Z,8.30
2023-03-10T07:53:47.128Z,8.30
2023-03-10T07:56:14.736Z,8.30
2023-03-10T07:58:41.763Z,8.40
2023-03-10T08:01:13.876Z,8.40
2023-03-10T08:03:40.889Z,8.30
2023-03-10T08:06:07.786Z,8.10
2023-03-10T08:08:34.829Z,8.00
2023-03-10T08:11:06.983Z,7.90
2023-03-10T08:13:33.889Z,8.00
2023-03-10T08:16:01.555Z,8.10
2023-03-10T08:18:29.559Z,8.00
2023-03-10T08:20:56.998Z,7.90
2023-03-10T08:23:25.139Z,7.90
2023-03-10T08:25:52.336Z,7.90
2023-03-10T08:28:19.114Z,8.00
2023-03-10T08:31:01.151Z,8.30
2023-03-10T08:33:30.801Z,8.40
2023-03-10T08:36:06.482Z,8.50
2023-03-10T08:38:33.244Z,8.70
2023-03-10T08:41:28.584Z,9.00
2023-03-10T08:43:56.754Z,9.30
2023-03-10T08:46:25.310Z,9.40
2023-03-10T08:48:52.511Z,9.60
2023-03-10T08:51:19.675Z,9.90
2023-03-10T08:53:49.044Z,10.40
2023-03-10T08:56:17.321Z,10.80
2023-03-10T08:58:44.311Z,11.00
2023-03-10T09:01:13.168Z,10.80
2023-03-10T09:03:41.937Z,10.50
2023-03-10T09:06:09.074Z,9.90
2023-03-10T09:08:36.305Z,9.80
2023-03-10T09:11:03.832Z,10.10
2023-03-10T09:13:30.494Z,10.40
2023-03-10T09:15:57.196Z,10.60
2023-03-10T09:18:24.137Z,10.60
2023-03-10T09:20:51.291Z,10.40
2023-03-10T09:23:18.487Z,10.10
2023-03-10T09:25:45.320Z,9.70
2023-03-10T09:28:12.358Z,9.30
2023-03-10T09:30:41.033Z,9.10
2023-03-10T09:33:13.550Z,8.90
2023-03-10T09:35:41.737Z,9.00
2023-03-10T09:38:15.075Z,9.00
2023-03-10T09:40:58.257Z,9.20
2023-03-10T09:43:26.637Z,9.60
2023-03-10T09:46:06.293Z,9.80
2023-03-10T09:48:38.850Z,9.80
2023-03-10T09:51:25.921Z,9.80
2023-03-10T09:54:04.286Z,9.60
2023-03-10T09:56:36.102Z,9.50
2023-03-10T09:59:24.809Z,9.40
2023-03-10T10:01:53.302Z,9.30
2023-03-10T10:04:23.203Z,9.20
2023-03-10T10:06:51.173Z,9.00
2023-03-10T10:09:54.128Z,8.90
2023-03-10T10:12:23.885Z,9.00
2023-03-10T10:14:57.925Z,9.20
2023-03-10T10:17:35.479Z,9.00
2023-03-10T10:20:10.341Z,9.00
2023-03-10T10:22:39.102Z,9.10
2023-03-10T10:25:08.797Z,9.10
2023-03-10T10:27:36.809Z,9.20
2023-03-10T10:30:26.737Z,9.30
2023-03-10T10:33:14.657Z,9.40
2023-03-10T10:36:00.653Z,9.70
2023-03-10T10:38:30.244Z,9.90
2023-03-10T10:41:05.806Z,10.10
2023-03-10T10:43:45.424Z,10.00
2023-03-10T10:46:14.556Z,10.20
2023-03-10T10:48:48.888Z,10.00
2023-03-10T10:51:29.634Z,10.00
2023-03-10T10:54:06.230Z,10.20
2023-03-10T10:56:33.601Z,10.30
2023-03-10T10:59:07.595Z,10.70
2023-03-10T11:01:58.991Z,10.50
2023-03-10T11:04:28.358Z,10.70
2023-03-10T11:07:10.668Z,10.80
2023-03-10T11:09:38.358Z,10.90
2023-03-10T11:12:11.687Z,11.00
2023-03-10T11:15:02.962Z,11.10
2023-03-10T11:17:56.147Z,11.20
2023-03-10T11:20:32.716Z,11.30
2023-03-10T11:23:12.152Z,11.00
2023-03-10T11:25:49.378Z,11.00
2023-03-10T11:28:34.061Z,10.80
2023-03-10T11:31:15.875Z,10.40
2023-03-10T11:33:50.338Z,10.50
2023-03-10T11:36:57.480Z,10.60
2023-03-10T11:39:45.590Z,10.60
2023-03-10T11:42:30.585Z,10.80
2023-03-10T11:45:25.011Z,11.10
2023-03-10T11:48:16.220Z,11.00
2023-03-10T11:50:59.067Z,11.20
2023-03-10T11:53:31.914Z,11.60
2023-03-10T11:56:00.557Z,11.60
2023-03-10T11:58:48.333Z,11.40
2023-03-10T12:01:40.409Z,11.60
2023-03-10T12:04:16.475Z,11.70
2023-03-10T12:07:03.713Z,11.80
2023-03-10T12:09:46.422Z,11.30
2023-03-10T12:12:20.523Z,11.70
2023-03-10T12:14:47.964Z,11.60
2023-03-10T12:17:16.485Z,11.50
2023-03-10T12:20:18.887Z,11.30
2023-03-10T12:22:52.801Z,11.40
2023-03-10T12:25:28.706Z,11.60
2023-03-10T12:28:17.166Z,11.50
2023-03-10T12:31:32.523Z,11.30
2023-03-10T12:34:23.609Z,11.20
2023-03-10T12:36:53.498Z,10.70
2023-03-10T12:39:28.962Z,10.60
2023-03-10T12:41:57.654Z,10.60
2023-03-10T12:44:43.072Z,10.60
2023-03-10T12:47:09.779Z,10.80
2023-03-10T12:49:48.733Z,10.60
2023-03-10T12:52:31.482Z,10.50
2023-03-10T12:55:19.545Z,10.40
2023-03-10T12:58:17.234Z,10.00
2023-03-10T13:00:49.442Z,9.60
2023-03-10T13:03:19.509Z,9.40
2023-03-10T13:06:08.154Z,9.60
2023-03-10T13:08:53.912Z,9.60
2023-03-10T13:11:30.719Z,9.40
2023-03-10T13:14:20.136Z,9.20
2023-03-10T13:17:00.126Z,9.00
2023-03-10T13:19:32.483Z,8.60
2023-03-10T13:21:59.224Z,8.50
2023-03-10T13:24:38.325Z,8.40
2023-03-10T13:27:13.119Z,8.30
2023-03-10T13:29:52.864Z,8.30
2023-03-10T13:32:20.025Z,8.30
2023-03-10T13:34:46.785Z,8.40
2023-03-10T13:37:13.566Z,8.70
2023-03-10T13:39:40.441Z,8.90
2023-03-10T13:42:37.075Z,9.00
2023-03-10T13:45:34.100Z,9.10
2023-03-10T13:48:04.858Z,9.20
2023-03-10T13:50:31.863Z,9.00
2023-03-10T13:53:00.009Z,9.00
2023-03-10T13:55:28.455Z,8.80
2023-03-10T13:57:57.537Z,8.40
2023-03-10T14:00:25.777Z,8.20
2023-03-10T14:02:53.639Z,8.10
2023-03-10T14:05:45.496Z,7.90
2023-03-10T14:08:30.933Z,7.90
2023-03-10T14:11:22.526Z,8.10
2023-03-10T14:13:49.456Z,7.70
2023-03-10T14:16:16.157Z,7.40
2023-03-10T14:18:43.704Z,7.30
2023-03-10T14:21:30.647Z,7.20
2023-03-10T14:24:06.423Z,7.40
2023-03-10T14:26:33.523Z,7.50
2023-03-10T14:29:02.242Z,7.70
2023-03-10T14:31:29.076Z,7.70
2023-03-10T14:33:55.861Z,7.70
2023-03-10T14:36:24.895Z,7.50
2023-03-10T14:38:51.544Z,7.50
2023-03-10T14:41:21.066Z,7.40
2023-03-10T14:43:47.794Z,7.30
2023-03-10T14:46:14.673Z,7.30
2023-03-10T14:48:42.115Z,7.20
2023-03-10T14:51:32.573Z,7.10
2023-03-10T14:54:00.967Z,7.00
2023-03-10T14:56:28.204Z,7.00
2023-03-10T14:58:56.604Z,7.10
2023-03-10T15:01:23.426Z,7.00
2023-03-10T15:03:50.411Z,6.90
2023-03-10T15:06:19.737Z,6.80
2023-03-10T15:08:46.449Z,6.80
2023-03-10T15:11:15.780Z,6.70
2023-03-10T15:13:43.054Z,6.50
2023-03-10T15:16:13.549Z,6.30
2023-03-10T15:18:40.494Z,6.10
2023-03-10T15:21:08.909Z,6.00
2023-03-10T15:23:35.724Z,6.00
2023-03-10T15:26:09.434Z,5.80
2023-03-10T15:28:37.396Z,5.80
2023-03-10T15:31:04.634Z,5.90
2023-03-10T15:33:31.452Z,5.90
2023-03-10T15:35:58.435Z,6.00
2023-03-10T15:38:25.150Z,6.00
2023-03-10T15:40:51.926Z,5.90
2023-03-10T15:43:18.672Z,6.10
2023-03-10T15:45:51.846Z,6.10
2023-03-10T15:48:18.845Z,6.10
2023-03-10T15:50:48.889Z,6.00
2023-03-10T15:53:15.681Z,6.00
2023-03-10T15:55:42.883Z,5.90
2023-03-10T15:58:10.905Z,5.90
2023-03-10T16:00:37.610Z,5.60
2023-03-10T16:03:04.563Z,5.40
2023-03-10T16:05:31.263Z,5.60
2023-03-10T16:07:57.892Z,5.50
2023-03-10T16:10:24.571Z,5.50
2023-03-10T16:12:51.713Z,5.50
2023-03-10T16:15:18.634Z,5.40
2023-03-10T16:17:45.721Z,5.40
2023-03-10T16:20:13.746Z,5.30
2023-03-10T16:22:42.864Z,5.30
2023-03-10T16:25:15.387Z,5.20
2023-03-10T16:27:43.865Z,5.20
2023-03-10T16:30:12.245Z,5.20
2023-03-10T16:32:38.950Z,5.20
2023-03-10T16:35:06.427Z,5.10
2023-03-10T16:37:33.072Z,5.10
2023-03-10T16:39:59.914Z,5.10
2023-03-10T16:42:26.626Z,5.00
2023-03-10T16:44:57.076Z,5.00
2023-03-10T16:47:24.240Z,5.00
2023-03-10T16:49:50.944Z,5.00
2023-03-10T16:52:17.629Z,5.00
2023-03-10T16:54:46.449Z,4.90
2023-03-10T16:57:14.897Z,5.00
2023-03-10T16:59:44.389Z,4.90
2023-03-10T17:02:16.260Z,4.90
2023-03-10T17:04:43.367Z,4.90
2023-03-10T17:07:10.025Z,4.90
2023-03-10T17:09:37.908Z,4.80
2023-03-10T17:12:05.140Z,4.80
2023-03-10T17:14:31.971Z,4.80
2023-03-10T17:16:58.816Z,4.60
2023-03-10T17:19:29.814Z,4.60
2023-03-10T17:21:58.292Z,4.50
2023-03-10T17:24:25.439Z,4.60
2023-03-10T17:26:52.098Z,4.70
2023-03-10T17:29:18.862Z,4.70
2023-03-10T17:31:50.093Z,4.70
2023-03-10T17:34:17.424Z,4.70
2023-03-10T17:36:44.667Z,4.70
2023-03-10T17:39:20.293Z,4.70
2023-03-10T17:41:47.963Z,4.80
2023-03-10T17:44:15.615Z,4.50
2023-03-10T17:46:42.522Z,4.20
2023-03-10T17:49:12.358Z,4.00
2023-03-10T17:51:43.489Z,3.80
2023-03-10T17:54:12.818Z,3.80
2023-03-10T17:56:39.596Z,3.80
2023-03-10T17:59:06.300Z,3.90
2023-03-10T18:01:33.982Z,3.90
2023-03-10T18:04:01.359Z,4.00
2023-03-10T18:06:32.224Z,4.20
2023-03-10T18:09:05.451Z,4.20
2023-03-10T18:11:33.164Z,4.00
2023-03-10T18:14:03.082Z,3.90
2023-03-10T18:16:32.907Z,3.70
2023-03-10T18:19:00.352Z,3.60
2023-03-10T18:21:27.546Z,3.50
2023-03-10T18:23:54.886Z,3.50
2023-03-10T18:26:27.649Z,3.50
2023-03-10T18:28:54.333Z,3.50
2023-03-10T18:31:23.697Z,3.50
2023-03-10T18:33:50.594Z,3.50
2023-03-10T18:36:19.075Z,3.50
2023-03-10T18:38:47.356Z,3.50
2023-03-10T18:41:17.048Z,3.50
2023-03-10T18:43:43.818Z,3.40
2023-03-10T18:46:10.762Z,3.30
2023-03-10T18:48:37.418Z,3.40
2023-03-10T18:51:04.498Z,3.40
2023-03-10T18:53:31.209Z,3.40
2023-03-10T18:55:59.360Z,3.40
2023-03-10T18:58:26.703Z,3.50
2023-03-10T19:00:53.347Z,3.60
2023-03-10T19:03:20.147Z,3.50
2023-03-10T19:05:51.552Z,3.60
2023-03-10T19:08:18.920Z,3.50
2023-03-10T19:10:45.623Z,3.40
2023-03-10T19:13:12.302Z,3.40
2023-03-10T19:15:38.920Z,3.30
2023-03-10T19:18:05.696Z,3.30
2023-03-10T19:20:32.336Z,3.20
2023-03-10T19:22:58.962Z,3.20
2023-03-10T19:25:25.707Z,3.20
2023-03-10T19:27:52.372Z,3.20
2023-03-10T19:30:20.164Z,3.20
2023-03-10T19:32:47.557Z,3.20
2023-03-10T19:35:15.489Z,3.10
2023-03-10T19:37:46.881Z,3.00
2023-03-10T19:40:16.055Z,3.00
2023-03-10T19:42:43.013Z,3.00
2023-03-10T19:45:18.069Z,3.10
2023-03-10T19:47:45.748Z,3.10
2023-03-10T19:50:15.528Z,3.10
2023-03-10T19:52:46.848Z,3.00
2023-03-10T19:55:19.778Z,2.90
2023-03-10T19:57:48.535Z,2.90
2023-03-10T20:00:18.722Z,2.60
2023-03-10T20:02:45.532Z,2.40
2023-03-10T20:05:14.889Z,2.40
2023-03-10T20:07:44.256Z,2.30
2023-03-10T20:10:11.718Z,2.30
2023-03-10T20:12:38.533Z,2.20
2023-03-10T20:15:06.507Z,2.30
2023-03-10T20:17:33.227Z,2.30
2023-03-10T20:19:59.870Z,2.30
2023-03-10T20:22:26.574Z,2.40
2023-03-10T20:24:53.465Z,2.30
2023-03-10T20:27:20.156Z,2.20
2023-03-10T20:29:46.932Z,1.90
2023-03-10T20:32:13.775Z,1.50
2023-03-10T20:34:41.241Z,1.20
2023-03-10T20:37:08.387Z,1.10
2023-03-10T20:39:35.068Z,1.10
2023-03-10T20:42:01.793Z,1.20
2023-03-10T20:44:28.612Z,1.20
2023-03-10T20:46:55.277Z,1.20
2023-03-10T20:49:21.990Z,1.30
2023-03-10T20:51:48.676Z,1.30
2023-03-10T20:54:15.448Z,1.30
2023-03-10T20:56:42.177Z,1.30
2023-03-10T20:59:08.890Z,1.40
2023-03-10T21:01:39.673Z,1.40
2023-03-10T21:04:06.532Z,1.40
2023-03-10T21:06:33.388Z,1.40
2023-03-10T21:09:05.629Z,1.40
2023-03-10T21:11:33.007Z,1.30
2023-03-10T21:14:00.015Z,1.40
2023-03-10T21:16:27.216Z,1.40
2023-03-10T21:18:54.188Z,1.40
2023-03-10T21:21:20.869Z,1.50
2023-03-10T21:23:47.729Z,1.50
2023-03-10T21:26:18.038Z,1.50
2023-03-10T21:28:44.894Z,1.50
2023-03-10T21:31:12.118Z,1.50
2023-03-10T21:33:41.595Z,1.50
2023-03-10T21:36:15.667Z,1.50
2023-03-10T21:38:43.110Z,1.50
2023-03-10T21:41:12.131Z,1.40
2023-03-10T21:43:38.845Z,1.40
2023-03-10T21:46:06.462Z,1.40
2023-03-10T21:48:33.290Z,1.40
2023-03-10T21:50:59.987Z,1.40
2023-03-10T21:53:27.108Z,1.40
2023-03-10T21:55:54.419Z,1.40
2023-03-10T21:58:23.423Z,1.50
2023-03-10T22:00:50.623Z,1.40
2023-03-10T22:03:17.571Z,1.40
2023-03-10T22:05:44.749Z,1.30
2023-03-10T22:08:11.547Z,1.20
2023-03-10T22:10:38.266Z,1.10
2023-03-10T22:13:04.952Z,1.10
2023-03-10T22:15:31.730Z,1.00
2023-03-10T22:17:59.578Z,1.10
2023-03-10T22:20:27.710Z,1.10
2023-03-10T22:22:55.180Z,1.10
2023-03-10T22:25:21.918Z,1.10
2023-03-10T22:27:51.104Z,1.10
2023-03-10T22:30:18.895Z,1.00
2023-03-10T22:32:45.616Z,1.00
2023-03-10T22:35:13.005Z,1.00
2023-03-10T22:37:40.701Z,1.00
2023-03-10T22:40:19.777Z,1.00
2023-03-10T22:42:46.981Z,1.10
2023-03-10T22:45:23.414Z,1.10
2023-03-10T22:47:53.398Z,1.10
2023-03-10T22:50:24.490Z,1.20
2023-03-10T22:52:51.226Z,1.20
2023-03-10T22:55:26.407Z,1.20
2023-03-10T22:57:53.611Z,1.10
2023-03-10T23:00:22.234Z,1.00
2023-03-10T23:02:50.556Z,1.00
2023-03-10T23:05:17.767Z,1.00
2023-03-10T23:07:45.301Z,1.00
2023-03-10T23:10:24.560Z,1.00
2023-03-10T23:12:52.539Z,0.90
2023-03-10T23:15:25.164Z,0.90
2023-03-10T23:17:53.648Z,0.80
2023-03-10T23:20:21.156Z,0.70
2023-03-10T23:22:47.850Z,0.70
2023-03-10T23:25:24.795Z,0.70
2023-03-10T23:27:51.551Z,0.70
2023-03-10T23:30:18.677Z,0.70
2023-03-10T23:32:47.431Z,0.60
2023-03-10T23:35:16.759Z,0.60
2023-03-10T23:37:43.451Z,0.50
2023-03-10T23:40:14.297Z,0.40
2023-03-10T23:42:42.512Z,0.40
2023-03-10T23:45:15.535Z,0.40
2023-03-10T23:47:43.138Z,0.30
2023-03-10T23:50:20.989Z,0.30
2023-03-10T23:52:48.888Z,0.30
2023-03-10T23:55:22.001Z,0.40
2023-03-10T23:57:49.147Z,0.40
